Time;durP1;ratioP1;P1;durP2;ratioP2;P2;SDS_P1;SDS_P2;PMS_P1;PMS_P2;Temp;Humidity;BMP_temperature;BMP_pressure;BME280_temperature;BME280_humidity;BME280_pressure;Samples;Min_cycle;Max_cycle;Signal;HPM_P1;HPM_P2
2023/04/15 00:02:15;;;;;;;0.60;0.60;;;7.70;99.90;;;;;;4994070;28;20296;-63
2023/04/15 00:04:42;;;;;;;0.80;0.80;;;7.70;99.90;;;;;;4993527;28;20206;-63
2023/04/15 00:07:10;;;;;;;2.00;0.90;;;7.70;99.90;;;;;;4997275;28;20244;-63
2023/04/15 00:09:37;;;;;;;0.70;0.70;;;7.60;99.90;;;;;;4995763;28;20222;-63
2023/04/15 00:12:04;;;;;;;0.60;0.60;;;7.60;99.90;;;;;;4996134;28;20298;-62
2023/04/15 00:14:31;;;;;;;0.82;0.80;;;7.60;99.90;;;;;;4994146;28;20201;-62
2023/04/15 00:16:58;;;;;;;0.70;0.70;;;7.60;99.90;;;;;;4992245;28;20210;-63
2023/04/15 00:19:25;;;;;;;0.70;0.70;;;7.50;99.90;;;;;;4991189;28;20233;-63
2023/04/15 00:21:52;;;;;;;0.90;0.90;;;7.50;99.90;;;;;;4992134;28;20268;-63
2023/04/15 00:24:20;;;;;;;1.33;0.80;;;7.50;99.90;;;;;;4992489;28;20692;-62
2023/04/15 00:26:47;;;;;;;0.70;0.70;;;7.50;99.90;;;;;;4993254;28;20267;-62
2023/04/15 00:29:14;;;;;;;0.70;0.70;;;7.60;99.90;;;;;;4996714;28;20229;-63
2023/04/15 00:31:41;;;;;;;1.00;0.90;;;7.50;99.90;;;;;;5009826;28;20192;-64
2023/04/15 00:34:11;;;;;;;1.15;1.00;;;7.50;99.90;;;;;;5006632;28;20210;-63
2023/04/15 00:36:43;;;;;;;0.80;0.80;;;7.50;99.90;;;;;;4994127;28;20210;-63
2023/04/15 00:39:18;;;;;;;0.80;0.80;;;7.50;99.90;;;;;;4991330;28;20624;-64
2023/04/15 00:41:59;;;;;;;0.98;0.98;;;7.50;99.90;;;;;;4990603;28;20222;-63
2023/04/15 00:44:32;;;;;;;1.10;1.00;;;7.40;99.90;;;;;;4994812;28;20300;-63
2023/04/15 00:47:01;;;;;;;0.80;0.75;;;7.30;99.90;;;;;;4995470;28;20558;-62
2023/04/15 00:49:34;;;;;;;0.80;0.80;;;7.30;99.90;;;;;;4994127;28;20644;-62
2023/04/15 00:52:02;;;;;;;0.88;0.88;;;7.30;99.90;;;;;;4995036;28;20214;-62
2023/04/15 00:54:41;;;;;;;0.55;0.55;;;7.20;99.90;;;;;;4996373;28;20581;-62
2023/04/15 00:57:32;;;;;;;0.82;0.82;;;7.10;99.90;;;;;;4996887;28;20212;-62
2023/04/15 01:00:03;;;;;;;1.00;1.00;;;7.00;99.90;;;;;;4995539;28;20226;-62
2023/04/15 01:02:33;;;;;;;0.70;0.70;;;6.90;99.90;;;;;;5001670;28;20265;-62
2023/04/15 01:05:06;;;;;;;0.75;0.75;;;6.80;99.90;;;;;;5013795;28;20222;-63
2023/04/15 01:07:33;;;;;;;2.05;1.00;;;6.80;99.90;;;;;;5006662;28;20215;-63
2023/04/15 01:10:01;;;;;;;1.02;1.02;;;6.70;99.90;;;;;;5003746;28;20245;-62
2023/04/15 01:12:29;;;;;;;0.80;0.80;;;6.70;99.90;;;;;;5003692;28;20229;-64
2023/04/15 01:14:56;;;;;;;1.00;0.80;;;6.60;99.90;;;;;;5000522;28;20202;-62
2023/04/15 01:17:25;;;;;;;1.45;1.00;;;6.50;99.90;;;;;;4998497;28;20558;-63
2023/04/15 01:19:52;;;;;;;0.80;0.80;;;6.40;99.90;;;;;;4997104;28;20230;-63
2023/04/15 01:22:19;;;;;;;0.65;0.65;;;6.30;99.90;;;;;;5002542;28;20210;-63
2023/04/15 01:24:55;;;;;;;0.82;0.82;;;6.30;99.90;;;;;;5002673;28;20221;-63
2023/04/15 01:27:24;;;;;;;0.82;0.82;;;6.30;99.90;;;;;;4999242;28;20214;-64
2023/04/15 01:29:51;;;;;;;0.90;0.90;;;6.20;99.90;;;;;;4995217;28;20225;-63
2023/04/15 01:32:18;;;;;;;0.70;0.70;;;6.30;99.90;;;;;;4993770;28;20588;-64
2023/04/15 01:34:45;;;;;;;0.60;0.60;;;6.20;99.90;;;;;;4993664;28;20210;-63
2023/04/15 01:37:12;;;;;;;0.90;0.90;;;6.20;99.90;;;;;;4993863;28;20217;-64
2023/04/15 01:39:39;;;;;;;0.85;0.85;;;6.10;99.90;;;;;;4992589;28;20720;-64
2023/04/15 01:42:06;;;;;;;0.80;0.80;;;6.10;99.90;;;;;;4993466;28;20641;-63
2023/04/15 01:44:34;;;;;;;0.73;0.73;;;6.10;99.90;;;;;;4992910;28;20259;-64
2023/04/15 01:47:01;;;;;;;1.05;0.95;;;6.10;99.90;;;;;;4993319;28;20220;-63
2023/04/15 01:49:28;;;;;;;1.02;0.80;;;6.10;99.90;;;;;;5001294;28;20297;-62
2023/04/15 01:51:54;;;;;;;0.85;0.85;;;6.20;99.90;;;;;;5006347;28;20292;-62
2023/04/15 01:54:21;;;;;;;0.88;0.88;;;6.20;99.90;;;;;;4993209;28;20224;-63
2023/04/15 01:56:48;;;;;;;0.77;0.77;;;6.20;99.90;;;;;;4994061;28;20209;-64
2023/04/15 01:59:15;;;;;;;0.82;0.82;;;6.20;99.90;;;;;;4987754;28;20230;-64
2023/04/15 02:01:44;;;;;;;1.27;1.27;;;6.30;99.90;;;;;;4994781;28;20229;-64
2023/04/15 02:04:15;;;;;;;0.70;0.70;;;6.20;99.90;;;;;;4994488;28;20218;-63
2023/04/15 02:06:42;;;;;;;0.63;0.63;;;6.30;99.90;;;;;;4994922;28;20202;-64
2023/04/15 02:09:09;;;;;;;0.90;0.90;;;6.20;99.90;;;;;;4992860;28;20226;-64
2023/04/15 02:11:36;;;;;;;0.87;0.87;;;6.10;99.90;;;;;;4993459;28;20677;-62
2023/04/15 02:14:04;;;;;;;0.75;0.75;;;6.10;99.90;;;;;;4993665;28;20586;-63
2023/04/15 02:16:32;;;;;;;0.70;0.70;;;6.10;99.90;;;;;;4994182;28;20209;-64
2023/04/15 02:19:00;;;;;;;0.80;0.80;;;6.00;99.90;;;;;;4993161;28;20256;-64
2023/04/15 02:21:27;;;;;;;0.68;0.68;;;5.90;99.90;;;;;;4993009;28;20228;-64
2023/04/15 02:23:54;;;;;;;0.70;0.70;;;5.90;99.90;;;;;;4993332;28;20292;-64
2023/04/15 02:26:21;;;;;;;0.70;0.70;;;5.90;99.90;;;;;;4994033;28;20652;-62
2023/04/15 02:28:50;;;;;;;0.80;0.80;;;5.90;99.90;;;;;;4994090;28;20230;-63
2023/04/15 02:31:17;;;;;;;0.93;0.88;;;5.90;99.90;;;;;;4993640;28;20202;-64
2023/04/15 02:33:44;;;;;;;0.85;0.85;;;5.90;99.90;;;;;;4999856;28;20214;-62
2023/04/15 02:36:12;;;;;;;0.70;0.70;;;5.80;99.90;;;;;;5006877;28;20208;-63
2023/04/15 02:38:41;;;;;;;0.80;0.80;;;5.80;99.90;;;;;;5012134;28;20236;-63
2023/04/15 02:41:08;;;;;;;0.77;0.77;;;5.70;99.90;;;;;;5010413;28;20286;-64
2023/04/15 02:43:35;;;;;;;1.17;1.00;;;5.70;99.90;;;;;;5005643;28;20217;-63
2023/04/15 02:46:02;;;;;;;0.70;0.70;;;5.70;99.90;;;;;;5001875;28;20222;-63
2023/04/15 02:48:28;;;;;;;0.80;0.80;;;5.60;99.90;;;;;;4993721;28;20236;-63
2023/04/15 02:51:15;;;;;;;0.70;0.70;;;5.60;99.90;;;;;;4992055;28;20206;-63
2023/04/15 02:53:42;;;;;;;0.70;0.70;;;5.60;99.90;;;;;;4994797;28;20205;-64
2023/04/15 02:56:10;;;;;;;0.60;0.60;;;5.70;99.90;;;;;;4996424;28;20297;-63
2023/04/15 02:58:37;;;;;;;0.80;0.80;;;5.70;99.90;;;;;;4995641;28;20273;-64
2023/04/15 03:01:04;;;;;;;0.80;0.80;;;5.70;99.90;;;;;;4992567;28;20221;-64
2023/04/15 03:03:31;;;;;;;0.73;0.73;;;5.70;99.90;;;;;;4992517;28;20212;-64
2023/04/15 03:05:58;;;;;;;0.70;0.70;;;5.80;99.90;;;;;;4993012;28;20202;-63
2023/04/15 03:08:26;;;;;;;0.70;0.70;;;5.70;99.90;;;;;;4992853;28;20235;-62
2023/04/15 03:10:53;;;;;;;0.95;0.95;;;5.70;99.90;;;;;;4991898;28;20609;-64
2023/04/15 03:13:20;;;;;;;0.70;0.70;;;5.70;99.90;;;;;;4993819;28;20210;-64
2023/04/15 03:15:47;;;;;;;0.68;0.68;;;5.70;99.90;;;;;;4998913;28;20217;-63
2023/04/15 03:18:14;;;;;;;0.80;0.80;;;5.70;99.90;;;;;;4997541;28;20232;-62
2023/04/15 03:20:41;;;;;;;0.82;0.82;;;5.70;99.90;;;;;;4991473;28;20239;-62
2023/04/15 03:23:08;;;;;;;0.70;0.70;;;5.70;99.90;;;;;;4992088;28;20201;-64
2023/04/15 03:25:37;;;;;;;0.80;0.80;;;5.60;99.90;;;;;;4992575;28;20292;-64
2023/04/15 03:28:04;;;;;;;0.70;0.70;;;5.60;99.90;;;;;;4992707;28;20260;-64
2023/04/15 03:30:30;;;;;;;0.73;0.73;;;5.50;99.90;;;;;;4991620;28;20206;-62
2023/04/15 03:32:57;;;;;;;0.80;0.80;;;5.50;99.90;;;;;;4992629;28;20225;-63
2023/04/15 03:35:24;;;;;;;1.00;1.00;;;5.60;99.90;;;;;;4993072;28;20205;-64
2023/04/15 03:37:51;;;;;;;0.82;0.80;;;5.50;99.90;;;;;;4992475;28;20633;-64
2023/04/15 03:40:18;;;;;;;0.80;0.80;;;5.50;99.90;;;;;;4991468;28;20230;-64
2023/04/15 03:42:46;;;;;;;0.70;0.70;;;5.50;99.90;;;;;;4992263;28;20208;-64
2023/04/15 03:45:13;;;;;;;0.93;0.93;;;5.50;99.90;;;;;;4992051;28;20444;-63
2023/04/15 03:47:39;;;;;;;0.70;0.70;;;5.40;99.90;;;;;;4992605;28;20210;-63
2023/04/15 03:50:07;;;;;;;1.13;1.10;;;5.40;99.90;;;;;;4991429;28;20233;-64
2023/04/15 03:52:34;;;;;;;0.80;0.80;;;5.40;99.90;;;;;;4992088;28;20206;-63
2023/04/15 03:55:01;;;;;;;1.08;1.00;;;5.40;99.90;;;;;;4992185;28;20213;-64
2023/04/15 03:57:28;;;;;;;0.77;0.77;;;5.40;99.90;;;;;;4991999;28;20209;-64
2023/04/15 03:59:56;;;;;;;0.77;0.77;;;5.40;99.90;;;;;;4990769;28;20226;-63
2023/04/15 04:02:23;;;;;;;0.80;0.80;;;5.40;99.90;;;;;;4992206;28;20230;-63
2023/04/15 04:04:50;;;;;;;0.90;0.90;;;5.40;99.90;;;;;;4992032;28;20218;-63
2023/04/15 04:07:17;;;;;;;0.70;0.70;;;5.40;99.90;;;;;;4992936;28;20212;-63
2023/04/15 04:09:44;;;;;;;1.00;0.83;;;5.40;99.90;;;;;;4991738;28;20252;-63
2023/04/15 04:12:11;;;;;;;1.00;1.00;;;5.40;99.90;;;;;;4992707;28;20210;-63
2023/04/15 04:14:38;;;;;;;0.82;0.82;;;5.40;99.90;;;;;;4999501;28;20209;-62
2023/04/15 04:17:06;;;;;;;0.80;0.80;;;5.40;99.90;;;;;;5003215;28;20753;-64
2023/04/15 04:19:33;;;;;;;1.00;1.00;;;5.40;99.90;;;;;;4995452;28;20226;-63
2023/04/15 04:22:00;;;;;;;0.90;0.90;;;5.40;99.90;;;;;;4995115;28;20812;-63
2023/04/15 04:24:27;;;;;;;1.52;1.00;;;5.40;99.90;;;;;;4995339;28;20696;-65
2023/04/15 04:26:53;;;;;;;0.70;0.70;;;5.40;99.90;;;;;;4994878;28;20209;-64
2023/04/15 04:29:20;;;;;;;0.70;0.70;;;5.30;99.90;;;;;;4994089;28;20745;-63
2023/04/15 04:31:47;;;;;;;0.80;0.80;;;5.20;99.90;;;;;;4994964;28;20285;-63
2023/04/15 04:34:15;;;;;;;0.70;0.70;;;5.20;99.90;;;;;;4994846;28;20559;-64
2023/04/15 04:36:42;;;;;;;0.80;0.80;;;5.30;99.90;;;;;;4994994;28;20214;-64
2023/04/15 04:39:09;;;;;;;1.00;0.87;;;5.30;99.90;;;;;;4994085;28;20316;-64
2023/04/15 04:41:36;;;;;;;1.00;1.00;;;5.30;99.90;;;;;;4995896;28;20333;-63
2023/04/15 04:44:03;;;;;;;1.15;1.05;;;5.40;99.90;;;;;;4994941;28;20209;-62
2023/04/15 04:46:29;;;;;;;1.20;1.10;;;5.40;99.90;;;;;;4994829;28;20217;-63
2023/04/15 04:48:56;;;;;;;0.90;0.90;;;5.40;99.90;;;;;;4995030;28;20623;-64
2023/04/15 04:51:25;;;;;;;1.10;1.00;;;5.40;99.90;;;;;;4994735;28;20204;-63
2023/04/15 04:53:51;;;;;;;1.10;1.10;;;5.40;99.90;;;;;;4994321;28;20617;-64
2023/04/15 04:56:18;;;;;;;1.10;1.10;;;5.50;99.90;;;;;;4993946;28;20214;-64
2023/04/15 04:58:45;;;;;;;2.40;0.97;;;5.50;99.90;;;;;;4992750;28;20236;-64
2023/04/15 05:01:12;;;;;;;1.20;1.20;;;5.60;99.90;;;;;;4992938;28;20709;-64
2023/04/15 05:03:39;;;;;;;1.10;1.10;;;5.70;99.90;;;;;;4994088;28;20202;-63
2023/04/15 05:06:07;;;;;;;1.30;1.30;;;5.70;99.90;;;;;;4993520;28;20568;-64
2023/04/15 05:08:35;;;;;;;1.60;1.50;;;5.90;99.90;;;;;;4994385;28;20230;-63
2023/04/15 05:11:02;;;;;;;1.52;1.42;;;5.90;99.90;;;;;;4992962;28;20210;-64
2023/04/15 05:13:29;;;;;;;1.38;1.38;;;5.90;99.90;;;;;;4994243;28;20688;-62
2023/04/15 05:15:56;;;;;;;1.85;1.50;;;5.90;99.90;;;;;;4995172;28;20206;-63
2023/04/15 05:18:23;;;;;;;1.40;1.30;;;5.90;99.90;;;;;;4994469;28;20609;-63
2023/04/15 05:20:50;;;;;;;0.93;0.93;;;6.00;99.90;;;;;;4992459;28;20716;-63
2023/04/15 05:23:17;;;;;;;1.13;1.13;;;6.10;99.90;;;;;;4994608;28;20212;-63
2023/04/15 05:25:45;;;;;;;1.10;1.10;;;6.20;99.90;;;;;;4994552;28;20631;-62
2023/04/15 05:28:12;;;;;;;1.42;1.33;;;6.30;99.90;;;;;;4994252;28;20241;-63
2023/04/15 05:30:39;;;;;;;1.00;1.00;;;6.40;99.90;;;;;;4996865;28;20209;-63
2023/04/15 05:33:07;;;;;;;0.90;0.90;;;6.50;99.90;;;;;;4999604;28;20209;-63
2023/04/15 05:35:33;;;;;;;0.90;0.90;;;6.60;99.90;;;;;;5002163;28;20680;-63
2023/04/15 05:38:00;;;;;;;1.00;1.00;;;6.70;99.90;;;;;;5001538;28;20277;-64
2023/04/15 05:40:27;;;;;;;1.20;1.20;;;6.70;99.90;;;;;;4994926;28;20212;-64
2023/04/15 05:42:55;;;;;;;1.30;1.20;;;6.80;99.90;;;;;;4994134;28;20225;-64
2023/04/15 05:45:22;;;;;;;1.20;1.20;;;6.90;99.90;;;;;;4994363;28;20711;-63
2023/04/15 05:47:52;;;;;;;0.88;0.88;;;7.00;99.90;;;;;;4995428;28;20216;-63
2023/04/15 05:50:19;;;;;;;1.00;1.00;;;7.00;99.90;;;;;;4993017;28;20216;-65
2023/04/15 05:52:47;;;;;;;0.80;0.80;;;7.10;99.90;;;;;;4994493;28;20208;-64
2023/04/15 05:55:14;;;;;;;1.30;1.20;;;7.30;99.90;;;;;;4993991;28;20297;-62
2023/04/15 05:57:41;;;;;;;1.00;0.90;;;7.30;99.90;;;;;;4993938;28;20202;-63
2023/04/15 06:00:10;;;;;;;0.90;0.90;;;7.50;99.90;;;;;;4993396;28;20287;-63
2023/04/15 06:02:37;;;;;;;0.90;0.90;;;7.50;99.90;;;;;;4993707;28;20226;-64
2023/04/15 06:05:08;;;;;;;0.95;0.95;;;7.60;99.90;;;;;;4994166;28;20209;-63
2023/04/15 06:07:35;;;;;;;0.73;0.73;;;7.70;99.90;;;;;;4993790;28;20217;-63
2023/04/15 06:10:02;;;;;;;1.00;1.00;;;7.80;99.90;;;;;;4993164;28;20266;-63
2023/04/15 06:12:29;;;;;;;0.93;0.93;;;7.90;99.90;;;;;;4994309;28;20567;-63
2023/04/15 06:14:56;;;;;;;0.97;0.97;;;7.90;99.90;;;;;;4993833;28;20206;-64
2023/04/15 06:17:24;;;;;;;0.97;0.90;;;8.00;99.90;;;;;;4993344;28;20751;-64
2023/04/15 06:19:54;;;;;;;0.90;0.90;;;8.00;99.90;;;;;;4993082;28;20340;-64
2023/04/15 06:22:21;;;;;;;1.05;1.05;;;8.00;99.90;;;;;;4993693;28;20588;-65
2023/04/15 06:24:48;;;;;;;0.93;0.87;;;8.10;99.90;;;;;;5004767;28;20202;-65
2023/04/15 06:27:15;;;;;;;0.95;0.95;;;8.20;99.90;;;;;;5014611;28;20252;-64
2023/04/15 06:29:41;;;;;;;0.80;0.80;;;8.20;99.90;;;;;;5007640;28;20668;-64
2023/04/15 06:32:08;;;;;;;1.20;1.03;;;8.30;99.90;;;;;;5010202;28;20217;-64
2023/04/15 06:34:37;;;;;;;1.08;0.98;;;8.40;99.90;;;;;;4998827;28;20232;-64
2023/04/15 06:37:04;;;;;;;1.10;1.10;;;8.50;99.90;;;;;;4995213;28;20202;-62
2023/04/15 06:39:31;;;;;;;0.90;0.90;;;8.50;99.90;;;;;;4992912;28;20308;-63
2023/04/15 06:41:57;;;;;;;1.00;1.00;;;8.60;99.90;;;;;;4993342;28;20221;-63
2023/04/15 06:44:24;;;;;;;0.90;0.90;;;8.70;99.90;;;;;;4993116;28;20216;-62
2023/04/15 06:46:51;;;;;;;0.90;0.90;;;8.80;99.90;;;;;;4993442;28;20220;-62
2023/04/15 06:49:18;;;;;;;1.02;1.02;;;8.80;99.90;;;;;;4992127;28;20751;-63
2023/04/15 06:51:46;;;;;;;1.00;1.00;;;8.90;99.90;;;;;;4993202;28;20210;-63
2023/04/15 06:54:13;;;;;;;0.90;0.90;;;9.10;99.90;;;;;;4992843;28;20231;-62
2023/04/15 06:56:40;;;;;;;1.00;1.00;;;9.20;99.90;;;;;;4993300;28;20599;-63
2023/04/15 06:59:07;;;;;;;0.97;0.97;;;9.30;99.90;;;;;;4992145;28;20301;-63
2023/04/15 07:01:34;;;;;;;0.90;0.90;;;9.50;99.90;;;;;;4989568;28;20759;-64
2023/04/15 07:04:01;;;;;;;0.80;0.80;;;9.70;99.90;;;;;;4986695;28;20212;-64
2023/04/15 07:06:28;;;;;;;0.90;0.90;;;9.80;99.90;;;;;;4992904;28;20205;-64
2023/04/15 07:08:56;;;;;;;0.90;0.90;;;10.00;99.90;;;;;;4992716;28;20316;-64
2023/04/15 07:11:23;;;;;;;0.98;0.98;;;10.10;99.90;;;;;;4991227;28;20209;-64
2023/04/15 07:13:49;;;;;;;1.50;1.40;;;10.10;99.90;;;;;;4983353;28;20198;-62
2023/04/15 07:16:17;;;;;;;1.50;1.50;;;10.20;99.90;;;;;;4986284;28;20233;-63
2023/04/15 07:18:44;;;;;;;1.30;1.30;;;10.30;99.90;;;;;;4995403;28;20272;-64
2023/04/15 07:21:11;;;;;;;1.47;1.37;;;10.30;99.90;;;;;;5003650;28;20234;-62
2023/04/15 07:23:38;;;;;;;1.30;1.20;;;10.40;99.90;;;;;;4991146;28;20293;-62
2023/04/15 07:26:06;;;;;;;1.30;1.30;;;10.40;99.90;;;;;;4984764;28;20206;-63
2023/04/15 07:28:33;;;;;;;1.20;1.15;;;10.30;99.90;;;;;;4995604;28;20668;-62
2023/04/15 07:31:00;;;;;;;1.00;1.00;;;10.40;99.90;;;;;;4993528;28;20212;-62
2023/04/15 07:33:27;;;;;;;2.37;2.27;;;10.60;99.90;;;;;;4989847;28;20230;-63
2023/04/15 07:35:54;;;;;;;2.03;1.92;;;10.70;99.90;;;;;;4989340;28;20650;-64
2023/04/15 07:38:20;;;;;;;1.90;1.80;;;10.80;99.90;;;;;;5008011;28;20253;-64
2023/04/15 07:40:48;;;;;;;2.80;2.33;;;10.90;99.90;;;;;;5000226;28;20216;-64
2023/04/15 07:43:16;;;;;;;1.63;1.52;;;11.00;99.90;;;;;;5006881;28;20221;-64
2023/04/15 07:45:43;;;;;;;1.17;1.00;;;11.20;99.90;;;;;;5014675;28;20314;-63
2023/04/15 07:48:10;;;;;;;1.02;1.02;;;11.20;99.90;;;;;;5002427;28;20222;-62
2023/04/15 07:50:37;;;;;;;1.10;1.10;;;11.20;99.90;;;;;;4991968;28;20210;-63
2023/04/15 07:53:04;;;;;;;1.33;1.30;;;11.30;99.90;;;;;;4990495;28;20194;-64
2023/04/15 07:55:31;;;;;;;1.50;1.40;;;11.50;99.90;;;;;;4990715;28;20202;-64
2023/04/15 07:57:58;;;;;;;1.08;1.08;;;11.50;99.90;;;;;;4997824;28;20308;-62
2023/04/15 08:00:27;;;;;;;1.20;1.20;;;11.60;99.90;;;;;;4996659;28;20206;-63
2023/04/15 08:02:56;;;;;;;1.30;1.20;;;11.60;99.90;;;;;;4994081;28;20230;-64
2023/04/15 08:05:23;;;;;;;1.48;1.23;;;11.70;99.90;;;;;;4992800;28;20791;-63
2023/04/15 08:07:49;;;;;;;1.33;1.23;;;11.70;99.90;;;;;;4996404;28;20220;-64
2023/04/15 08:10:16;;;;;;;1.50;1.40;;;11.90;99.90;;;;;;4996200;28;20213;-64
2023/04/15 08:12:47;;;;;;;1.08;1.08;;;12.00;99.90;;;;;;4986850;28;20209;-63
2023/04/15 08:15:15;;;;;;;1.23;1.23;;;12.10;99.90;;;;;;4977397;28;20305;-64
2023/04/15 08:17:43;;;;;;;1.23;1.13;;;12.20;99.90;;;;;;4978543;28;20211;-65
2023/04/15 08:20:12;;;;;;;1.20;1.20;;;12.30;99.90;;;;;;4979119;28;20615;-63
2023/04/15 08:22:38;;;;;;;1.40;1.30;;;12.00;99.90;;;;;;4979297;28;20230;-64
2023/04/15 08:25:06;;;;;;;1.35;1.30;;;12.10;99.90;;;;;;4977095;28;20221;-64
2023/04/15 08:27:32;;;;;;;1.33;1.33;;;12.20;99.90;;;;;;4976914;28;20213;-62
2023/04/15 08:29:59;;;;;;;1.50;1.40;;;12.40;99.90;;;;;;4975866;28;20241;-64
2023/04/15 08:32:26;;;;;;;1.50;1.40;;;12.60;99.90;;;;;;4976187;28;20253;-64
2023/04/15 08:34:54;;;;;;;1.45;1.38;;;12.80;99.90;;;;;;4976353;28;20228;-63
2023/04/15 08:37:21;;;;;;;1.30;1.30;;;13.00;99.90;;;;;;4987877;28;20206;-63
2023/04/15 08:39:48;;;;;;;1.40;1.30;;;13.10;99.90;;;;;;4995077;28;20245;-62
2023/04/15 08:42:17;;;;;;;1.30;1.30;;;13.20;99.90;;;;;;4995326;28;20276;-63
2023/04/15 08:44:46;;;;;;;0.90;0.90;;;13.40;99.90;;;;;;4995295;28;20310;-63
2023/04/15 08:47:14;;;;;;;1.25;0.90;;;13.60;99.90;;;;;;4995646;28;20225;-64
2023/04/15 08:49:43;;;;;;;0.93;0.93;;;13.70;99.90;;;;;;4994775;28;20229;-64
2023/04/15 08:52:12;;;;;;;0.77;0.77;;;13.90;99.90;;;;;;4995282;28;20293;-64
2023/04/15 08:54:38;;;;;;;0.90;0.90;;;14.10;99.90;;;;;;4995286;28;20206;-64
2023/04/15 08:57:06;;;;;;;0.90;0.90;;;14.00;99.90;;;;;;4995710;28;20603;-64
2023/04/15 08:59:34;;;;;;;0.70;0.70;;;14.20;99.90;;;;;;4994715;28;20272;-63
2023/04/15 09:02:02;;;;;;;0.70;0.70;;;14.10;99.90;;;;;;4994982;28;20605;-63
2023/04/15 09:04:30;;;;;;;0.95;0.95;;;14.10;99.90;;;;;;4994974;28;20212;-62
2023/04/15 09:06:57;;;;;;;1.00;1.00;;;14.20;99.90;;;;;;4995497;28;20206;-64
2023/04/15 09:09:25;;;;;;;0.88;0.88;;;14.20;99.90;;;;;;4994492;28;20238;-64
2023/04/15 09:11:52;;;;;;;0.90;0.90;;;14.20;99.90;;;;;;4995975;28;20288;-64
2023/04/15 09:14:18;;;;;;;0.95;0.95;;;14.20;99.90;;;;;;4996531;28;20206;-62
2023/04/15 09:16:59;;;;;;;0.90;0.90;;;14.40;99.90;;;;;;4996825;28;20216;-64
2023/04/15 09:19:27;;;;;;;1.00;1.00;;;14.60;99.90;;;;;;4993953;28;20260;-64
2023/04/15 09:21:55;;;;;;;1.00;1.00;;;14.70;99.90;;;;;;4994644;28;20599;-63
2023/04/15 09:24:22;;;;;;;1.03;1.00;;;14.80;99.90;;;;;;4996154;28;20205;-64
2023/04/15 09:26:54;;;;;;;0.88;0.88;;;14.80;99.90;;;;;;5000928;28;20216;-62
2023/04/15 09:29:25;;;;;;;0.93;0.93;;;14.60;99.90;;;;;;5001234;28;20234;-62
2023/04/15 09:31:52;;;;;;;1.00;1.00;;;14.60;99.90;;;;;;4995138;28;20210;-64
2023/04/15 09:34:20;;;;;;;0.70;0.70;;;14.40;99.90;;;;;;4994925;28;20221;-62
2023/04/15 09:36:54;;;;;;;1.08;1.08;;;14.50;99.90;;;;;;4995289;28;20209;-63
2023/04/15 09:39:21;;;;;;;1.20;1.10;;;14.40;99.90;;;;;;4994190;28;20308;-63
2023/04/15 09:42:06;;;;;;;1.30;1.20;;;14.40;99.90;;;;;;4991727;28;20678;-63
2023/04/15 09:44:33;;;;;;;1.10;1.10;;;14.40;99.90;;;;;;4988505;28;20198;-64
2023/04/15 09:47:00;;;;;;;1.05;1.00;;;14.50;99.90;;;;;;5005621;28;20283;-62
2023/04/15 09:49:27;;;;;;;1.08;1.02;;;14.80;99.90;;;;;;4992294;28;20277;-63
2023/04/15 09:51:59;;;;;;;0.80;0.80;;;15.10;99.90;;;;;;4994556;28;20296;-64
2023/04/15 09:54:33;;;;;;;1.08;1.00;;;15.20;99.90;;;;;;4993593;28;20206;-64
2023/04/15 09:57:07;;;;;;;0.95;0.95;;;15.40;99.90;;;;;;4986466;28;20199;-64
2023/04/15 09:59:34;;;;;;;0.90;0.90;;;15.30;99.90;;;;;;4999462;28;20312;-68
2023/04/15 10:02:01;;;;;;;1.13;1.10;;;15.40;99.90;;;;;;5003391;28;20206;-63
2023/04/15 10:04:29;;;;;;;0.80;0.80;;;15.40;99.90;;;;;;5001242;28;20294;-64
2023/04/15 10:06:57;;;;;;;0.85;0.85;;;15.50;99.90;;;;;;5002501;28;20260;-63
2023/04/15 10:09:24;;;;;;;0.90;0.80;;;15.50;99.90;;;;;;5000475;28;20234;-63
2023/04/15 10:11:52;;;;;;;0.90;0.90;;;15.50;99.90;;;;;;5001915;28;20253;-66
2023/04/15 10:14:21;;;;;;;1.10;1.10;;;15.40;99.90;;;;;;4999382;28;20237;-64
2023/04/15 10:16:50;;;;;;;0.90;0.90;;;15.40;99.90;;;;;;4995167;28;20205;-64
2023/04/15 10:19:22;;;;;;;1.08;1.05;;;15.70;99.90;;;;;;4994842;28;20230;-64
2023/04/15 10:21:50;;;;;;;0.90;0.90;;;15.50;99.90;;;;;;4996794;28;20386;-64
2023/04/15 10:24:17;;;;;;;0.85;0.85;;;15.60;99.90;;;;;;4996079;28;20217;-63
2023/04/15 10:26:44;;;;;;;0.98;0.98;;;15.70;99.90;;;;;;4993832;28;20217;-63
2023/04/15 10:29:12;;;;;;;0.90;0.90;;;15.80;99.90;;;;;;4992723;28;20694;-64
2023/04/15 10:31:41;;;;;;;0.90;0.90;;;15.70;99.90;;;;;;4993111;28;20297;-64
2023/04/15 10:34:09;;;;;;;0.90;0.82;;;15.90;99.90;;;;;;4992916;28;20288;-64
2023/04/15 10:36:37;;;;;;;0.80;0.80;;;16.00;99.90;;;;;;4986267;28;20205;-63
2023/04/15 10:39:39;;;;;;;0.77;0.77;;;15.70;99.90;;;;;;4989485;28;20256;-63
2023/04/15 10:42:07;;;;;;;1.85;0.93;;;15.60;99.90;;;;;;4986956;28;20201;-64
2023/04/15 10:44:36;;;;;;;0.80;0.80;;;15.90;99.90;;;;;;4986700;28;20203;-62
2023/04/15 10:47:11;;;;;;;0.70;0.70;;;16.30;99.90;;;;;;4987257;28;20649;-62
2023/04/15 10:49:44;;;;;;;0.90;0.90;;;16.30;99.90;;;;;;4984447;28;20229;-63
2023/04/15 10:52:12;;;;;;;0.80;0.80;;;16.40;99.90;;;;;;4986048;28;20217;-64
2023/04/15 10:54:39;;;;;;;1.10;1.10;;;16.60;99.90;;;;;;4985224;28;20198;-64
2023/04/15 10:57:15;;;;;;;1.10;1.10;;;16.80;99.90;;;;;;4987728;28;20212;-64
2023/04/15 11:00:03;;;;;;;0.85;0.85;;;16.80;99.90;;;;;;4987390;28;20676;-63
2023/04/15 11:02:41;;;;;;;1.05;1.05;;;16.70;99.90;;;;;;4991919;28;20612;-63
2023/04/15 11:05:09;;;;;;;1.00;1.00;;;16.70;99.90;;;;;;4990638;28;20268;-64
2023/04/15 11:07:37;;;;;;;0.90;0.90;;;16.70;99.90;;;;;;4989926;28;20203;-62
2023/04/15 11:10:25;;;;;;;1.15;1.05;;;16.70;99.90;;;;;;4983523;28;20237;-64
2023/04/15 11:12:53;;;;;;;1.23;1.15;;;16.80;99.90;;;;;;4988381;28;20212;-64
2023/04/15 11:15:29;;;;;;;1.00;1.00;;;16.70;99.90;;;;;;4992124;28;20962;-64
2023/04/15 11:17:59;;;;;;;0.95;0.95;;;16.50;99.90;;;;;;4991062;28;20296;-64
2023/04/15 11:20:26;;;;;;;1.05;1.05;;;16.60;99.90;;;;;;4989889;28;20198;-62
2023/04/15 11:22:54;;;;;;;1.23;1.13;;;16.60;99.90;;;;;;4995531;28;20325;-65
2023/04/15 11:25:24;;;;;;;1.25;1.15;;;16.70;99.90;;;;;;4991707;28;20261;-62
2023/04/15 11:27:53;;;;;;;1.00;1.00;;;17.00;99.90;;;;;;4989840;28;20296;-63
2023/04/15 11:30:21;;;;;;;1.10;1.00;;;17.30;99.90;;;;;;4989433;28;20205;-63
2023/04/15 11:32:48;;;;;;;0.80;0.80;;;17.40;99.90;;;;;;4990419;28;20212;-64
2023/04/15 11:35:18;;;;;;;1.05;1.02;;;17.20;99.90;;;;;;4983782;28;20198;-63
2023/04/15 11:37:47;;;;;;;1.00;0.95;;;17.20;99.90;;;;;;4992915;28;20241;-62
2023/04/15 11:40:14;;;;;;;0.93;0.93;;;17.10;99.90;;;;;;4993520;28;20216;-64
2023/04/15 11:42:41;;;;;;;0.80;0.80;;;16.80;99.90;;;;;;4993921;28;20210;-62
2023/04/15 11:45:09;;;;;;;0.82;0.82;;;16.70;99.90;;;;;;4996467;28;20217;-64
2023/04/15 11:47:36;;;;;;;0.73;0.73;;;16.70;99.90;;;;;;4992979;28;20272;-63
2023/04/15 11:50:17;;;;;;;0.70;0.70;;;16.70;99.90;;;;;;4991784;28;20230;-63
2023/04/15 11:52:53;;;;;;;0.75;0.75;;;16.90;99.90;;;;;;4992354;28;20248;-62
2023/04/15 11:55:20;;;;;;;0.90;0.90;;;16.80;99.90;;;;;;4992854;28;20210;-62
2023/04/15 11:57:47;;;;;;;1.00;1.00;;;17.00;99.90;;;;;;4992448;28;20688;-62
2023/04/15 12:00:16;;;;;;;1.15;1.10;;;17.00;99.90;;;;;;4991715;28;20293;-62
2023/04/15 12:02:43;;;;;;;0.90;0.90;;;17.10;99.90;;;;;;4993572;28;20202;-63
2023/04/15 12:05:11;;;;;;;2.53;1.20;;;17.30;99.90;;;;;;4993013;28;20676;-63
2023/04/15 12:08:00;;;;;;;0.88;0.88;;;17.50;98.80;;;;;;4992679;28;20240;-61
2023/04/15 12:10:27;;;;;;;1.27;1.17;;;17.60;96.40;;;;;;4991321;28;20209;-63
2023/04/15 12:12:53;;;;;;;1.60;1.10;;;17.60;95.40;;;;;;4992464;28;20206;-63
2023/04/15 12:15:23;;;;;;;0.95;0.90;;;17.60;93.90;;;;;;4992327;28;20220;-63
2023/04/15 12:17:53;;;;;;;0.90;0.90;;;17.70;94.50;;;;;;4993662;28;20206;-62
2023/04/15 12:20:24;;;;;;;0.75;0.75;;;17.60;95.20;;;;;;4994721;28;20606;-62
2023/04/15 12:22:52;;;;;;;0.85;0.75;;;17.40;95.00;;;;;;4993746;28;20210;-63
2023/04/15 12:25:34;;;;;;;0.82;0.82;;;17.60;95.10;;;;;;4995003;28;20201;-62
2023/04/15 12:28:01;;;;;;;0.75;0.75;;;17.50;94.20;;;;;;4996766;28;20210;-64
2023/04/15 12:30:28;;;;;;;0.70;0.70;;;17.50;94.00;;;;;;4996547;28;20214;-62
2023/04/15 12:32:55;;;;;;;0.82;0.80;;;17.70;95.20;;;;;;5002263;28;20209;-65
2023/04/15 12:35:22;;;;;;;0.77;0.77;;;17.80;92.30;;;;;;5005753;28;20210;-62
2023/04/15 12:37:51;;;;;;;1.00;1.00;;;17.60;91.30;;;;;;5002771;28;20304;-61
2023/04/15 12:40:19;;;;;;;0.90;0.90;;;17.70;92.20;;;;;;4998126;28;20212;-62
2023/04/15 12:42:47;;;;;;;0.70;0.70;;;17.80;93.40;;;;;;4995935;28;20305;-63
2023/04/15 12:45:14;;;;;;;1.67;0.80;;;17.60;90.40;;;;;;4996559;28;20222;-62
2023/04/15 12:47:41;;;;;;;0.70;0.70;;;17.40;88.40;;;;;;4995593;28;20220;-62
2023/04/15 12:50:08;;;;;;;0.60;0.60;;;17.50;89.40;;;;;;4994874;28;20739;-62
2023/04/15 12:52:35;;;;;;;0.70;0.70;;;17.70;89.50;;;;;;4996247;28;20212;-62
2023/04/15 12:55:02;;;;;;;0.80;0.80;;;17.90;87.50;;;;;;4995756;28;20274;-61
2023/04/15 12:57:30;;;;;;;0.80;0.80;;;17.80;88.50;;;;;;4998107;28;20213;-61
2023/04/15 12:59:57;;;;;;;0.80;0.80;;;17.90;89.70;;;;;;4994244;28;20293;-61